Time;durP1;ratioP1;P1;durP2;ratioP2;P2;SDS_P1;SDS_P2;PMS_P1;PMS_P2;Temp;Humidity;BMP_temperature;BMP_pressure;BME280_temperature;BME280_humidity;BME280_pressure;Samples;Min_cycle;Max_cycle;Signal;HPM_P1;HPM_P2
2022/03/06 00:02:23;;;;;;;10.70;6.50;;;0.80;99.90;;;;;;5279967;27;20185;-49
2022/03/06 00:04:54;;;;;;;6.70;5.50;;;0.80;99.90;;;;;;5305743;27;20213;-50
2022/03/06 00:07:25;;;;;;;13.73;7.23;;;0.70;99.90;;;;;;5305202;27;20529;-51
2022/03/06 00:09:55;;;;;;;7.20;5.70;;;0.70;99.90;;;;;;5301460;27;20195;-48
2022/03/06 00:12:26;;;;;;;9.30;6.03;;;0.70;99.90;;;;;;5306300;27;20181;-48
2022/03/06 00:14:56;;;;;;;7.00;6.23;;;0.70;99.90;;;;;;5304196;27;20199;-48
2022/03/06 00:17:27;;;;;;;9.40;6.07;;;0.70;99.90;;;;;;5302918;27;20189;-49
2022/03/06 00:19:57;;;;;;;20.20;7.70;;;0.80;99.90;;;;;;5302894;27;20208;-48
2022/03/06 00:22:28;;;;;;;8.83;6.50;;;0.80;99.90;;;;;;5307474;27;20204;-50
2022/03/06 00:24:59;;;;;;;11.80;6.80;;;0.80;99.90;;;;;;5304208;27;20209;-47
2022/03/06 00:27:29;;;;;;;9.00;6.70;;;0.80;99.90;;;;;;5305893;27;20485;-48
2022/03/06 00:30:00;;;;;;;7.27;6.57;;;0.70;99.90;;;;;;5306443;27;20501;-48
2022/03/06 00:32:31;;;;;;;9.67;6.30;;;0.70;99.90;;;;;;5304188;27;20184;-47
2022/03/06 00:35:02;;;;;;;7.53;6.17;;;0.70;99.90;;;;;;5303845;27;20496;-49
2022/03/06 00:37:32;;;;;;;9.63;5.90;;;0.80;99.90;;;;;;5305921;27;20547;-47
2022/03/06 00:40:05;;;;;;;11.30;7.70;;;0.80;99.90;;;;;;5306501;27;20462;-47
2022/03/06 00:42:36;;;;;;;15.63;6.77;;;0.80;99.70;;;;;;5304921;27;20184;-48
2022/03/06 00:45:07;;;;;;;7.17;6.40;;;0.90;99.70;;;;;;5302376;27;20454;-48
2022/03/06 00:47:37;;;;;;;13.47;9.50;;;0.90;99.80;;;;;;5303961;27;20176;-48
2022/03/06 00:50:09;;;;;;;37.23;19.03;;;0.90;99.90;;;;;;5306924;27;20899;-48
2022/03/06 00:52:40;;;;;;;9.33;7.27;;;1.00;99.90;;;;;;5303492;27;20861;-48
2022/03/06 00:55:11;;;;;;;12.00;7.50;;;0.90;99.90;;;;;;5301147;27;20440;-46
2022/03/06 00:57:41;;;;;;;12.40;7.23;;;0.90;99.90;;;;;;5307942;27;20430;-48
2022/03/06 01:00:12;;;;;;;10.60;7.70;;;0.80;99.90;;;;;;5303940;27;20205;-49
2022/03/06 01:02:43;;;;;;;9.63;6.83;;;0.80;99.90;;;;;;5304474;27;20721;-47
2022/03/06 01:05:14;;;;;;;9.20;7.10;;;0.80;99.90;;;;;;5305106;27;20533;-49
2022/03/06 01:07:44;;;;;;;12.73;7.60;;;0.80;99.90;;;;;;5300583;27;20215;-49
2022/03/06 01:10:15;;;;;;;13.00;7.83;;;0.80;99.90;;;;;;5301783;27;20227;-48
2022/03/06 01:12:45;;;;;;;8.90;7.57;;;0.80;99.90;;;;;;5289534;27;20220;-50
2022/03/06 01:15:16;;;;;;;12.70;7.87;;;0.80;99.90;;;;;;5288023;27;20181;-48
2022/03/06 01:17:47;;;;;;;9.53;7.30;;;0.80;99.90;;;;;;5303886;27;20184;-47
2022/03/06 01:20:19;;;;;;;10.47;6.90;;;0.80;99.90;;;;;;5307020;27;20208;-48
2022/03/06 01:22:50;;;;;;;9.90;6.80;;;0.90;99.60;;;;;;5303010;27;20196;-48
2022/03/06 01:25:21;;;;;;;10.83;7.47;;;0.80;99.90;;;;;;5303652;27;20965;-47
2022/03/06 01:27:51;;;;;;;19.77;7.60;;;0.70;99.90;;;;;;5305103;27;20434;-47
2022/03/06 01:30:22;;;;;;;10.67;8.20;;;0.80;99.90;;;;;;5305888;27;20208;-47
2022/03/06 01:32:54;;;;;;;10.00;8.00;;;0.80;99.60;;;;;;5302450;27;20194;-48
2022/03/06 01:35:24;;;;;;;9.63;7.40;;;0.70;99.40;;;;;;5304938;27;20437;-48
2022/03/06 01:37:55;;;;;;;10.10;7.70;;;0.70;99.30;;;;;;5300939;27;20926;-48
2022/03/06 01:40:26;;;;;;;10.90;7.43;;;0.70;99.10;;;;;;5302804;27;20208;-48
2022/03/06 01:42:57;;;;;;;6.57;5.97;;;0.70;98.80;;;;;;5298937;27;20188;-48
2022/03/06 01:45:27;;;;;;;7.60;6.60;;;0.80;98.60;;;;;;5304229;27;20173;-48
2022/03/06 01:47:59;;;;;;;6.70;5.93;;;0.80;99.00;;;;;;5303851;27;20929;-46
2022/03/06 01:50:35;;;;;;;10.10;7.80;;;0.70;99.50;;;;;;5300656;27;20655;-47
2022/03/06 01:53:08;;;;;;;6.33;5.73;;;0.80;99.90;;;;;;5303343;27;20447;-47
2022/03/06 01:55:39;;;;;;;9.80;6.70;;;0.80;99.90;;;;;;5302764;27;20786;-47
2022/03/06 01:58:11;;;;;;;8.60;5.97;;;0.90;99.90;;;;;;5301644;27;20418;-48
2022/03/06 02:00:48;;;;;;;8.03;7.23;;;0.90;99.90;;;;;;5304445;27;20468;-47
2022/03/06 02:03:19;;;;;;;11.23;6.63;;;0.80;99.90;;;;;;5300336;27;20450;-48
2022/03/06 02:05:50;;;;;;;7.13;6.43;;;0.90;99.90;;;;;;5298332;27;20429;-47
2022/03/06 02:08:20;;;;;;;6.80;6.10;;;0.90;99.90;;;;;;5299837;27;20448;-47
2022/03/06 02:10:52;;;;;;;8.60;6.87;;;0.80;99.90;;;;;;5301879;27;20186;-47
2022/03/06 02:13:24;;;;;;;6.50;5.70;;;0.80;99.90;;;;;;5303694;27;20221;-56
2022/03/06 02:15:56;;;;;;;6.67;5.53;;;0.70;99.90;;;;;;5299273;27;20434;-47
2022/03/06 02:18:26;;;;;;;10.13;6.13;;;0.70;99.90;;;;;;5304485;27;20585;-47
2022/03/06 02:20:57;;;;;;;6.50;5.43;;;0.80;99.90;;;;;;5307068;27;21293;-47
2022/03/06 02:23:27;;;;;;;12.43;6.90;;;0.70;99.90;;;;;;5303092;27;20192;-46
2022/03/06 02:25:58;;;;;;;8.40;6.37;;;0.70;99.90;;;;;;5305405;27;20189;-48
2022/03/06 02:28:29;;;;;;;8.37;6.10;;;0.80;99.90;;;;;;5303149;27;20235;-47
2022/03/06 02:31:00;;;;;;;12.03;6.90;;;0.80;99.90;;;;;;5303071;27;20179;-47
2022/03/06 02:33:31;;;;;;;8.90;6.50;;;0.80;99.90;;;;;;5304034;27;20206;-49
2022/03/06 02:36:01;;;;;;;11.73;6.60;;;0.80;99.90;;;;;;5304782;27;20853;-48
2022/03/06 02:38:32;;;;;;;9.73;6.50;;;0.80;99.90;;;;;;5303594;27;20190;-48
2022/03/06 02:41:02;;;;;;;6.97;6.30;;;0.80;99.90;;;;;;5303691;27;20683;-47
2022/03/06 02:43:33;;;;;;;11.53;6.57;;;0.80;99.90;;;;;;5300752;27;20183;-48
2022/03/06 02:46:03;;;;;;;11.30;5.60;;;0.80;99.90;;;;;;5301047;27;20183;-47
2022/03/06 02:48:34;;;;;;;11.50;6.33;;;0.80;99.90;;;;;;5301852;27;20191;-46
2022/03/06 02:51:05;;;;;;;11.27;6.00;;;0.80;99.90;;;;;;5303987;27;20183;-49
2022/03/06 02:53:36;;;;;;;6.97;5.53;;;0.80;99.90;;;;;;5305171;27;20193;-49
2022/03/06 02:56:07;;;;;;;14.17;6.60;;;0.80;99.90;;;;;;5302610;27;20540;-48
2022/03/06 02:58:39;;;;;;;6.77;5.60;;;0.90;99.90;;;;;;5306854;27;22120;-46
2022/03/06 03:01:09;;;;;;;6.00;5.43;;;0.90;99.90;;;;;;5302555;27;20210;-48
2022/03/06 03:03:43;;;;;;;9.37;5.93;;;0.90;99.90;;;;;;5305425;27;20454;-47
2022/03/06 03:06:13;;;;;;;9.07;6.30;;;0.80;99.90;;;;;;5302943;28;20185;-48
2022/03/06 03:08:46;;;;;;;7.37;5.83;;;0.70;99.90;;;;;;5302135;27;20453;-48
2022/03/06 03:11:16;;;;;;;9.80;6.47;;;0.70;99.90;;;;;;5302196;27;20184;-53
2022/03/06 03:13:47;;;;;;;8.97;6.00;;;0.70;99.90;;;;;;5279664;22;20493;-50
2022/03/06 03:16:17;;;;;;;6.07;5.20;;;0.70;99.90;;;;;;5235289;28;20223;-51
2022/03/06 03:18:48;;;;;;;8.87;6.20;;;0.80;99.90;;;;;;5230061;28;20621;-50
2022/03/06 03:21:19;;;;;;;8.37;6.17;;;0.80;99.90;;;;;;5232502;28;20216;-50
2022/03/06 03:23:49;;;;;;;8.40;5.80;;;0.70;99.90;;;;;;5231039;28;20209;-51
2022/03/06 03:26:20;;;;;;;6.63;4.83;;;0.70;99.90;;;;;;5215168;28;20614;-50
2022/03/06 03:28:51;;;;;;;10.90;5.80;;;0.70;99.90;;;;;;5235176;28;20178;-50
2022/03/06 03:31:21;;;;;;;6.20;5.20;;;0.70;99.90;;;;;;5211404;28;20663;-51
2022/03/06 03:33:52;;;;;;;10.57;6.90;;;0.60;99.90;;;;;;5227021;28;20468;-50
2022/03/06 03:36:22;;;;;;;7.13;5.80;;;0.60;99.90;;;;;;5231594;28;20190;-50
2022/03/06 03:38:53;;;;;;;7.00;5.47;;;0.70;99.90;;;;;;5214280;28;20189;-51
2022/03/06 03:41:24;;;;;;;7.40;5.30;;;0.60;99.90;;;;;;5229906;28;20241;-50
2022/03/06 03:43:55;;;;;;;9.37;5.53;;;0.60;99.90;;;;;;5217012;28;20220;-50
2022/03/06 03:46:25;;;;;;;11.97;6.40;;;0.60;99.90;;;;;;5219519;28;20526;-51
2022/03/06 03:48:56;;;;;;;6.10;4.90;;;0.60;99.30;;;;;;5219220;28;20186;-50
2022/03/06 03:51:26;;;;;;;6.33;5.03;;;0.50;99.60;;;;;;5227565;28;20185;-49
2022/03/06 03:53:57;;;;;;;7.83;5.57;;;0.50;99.90;;;;;;5224199;28;20209;-50
2022/03/06 03:56:27;;;;;;;8.93;5.70;;;0.50;99.90;;;;;;5229163;28;20302;-51
2022/03/06 03:58:58;;;;;;;5.93;4.87;;;0.50;99.90;;;;;;5237041;28;20190;-52
2022/03/06 04:01:29;;;;;;;4.10;3.57;;;0.50;99.90;;;;;;5231838;28;20218;-51
2022/03/06 04:03:59;;;;;;;8.50;4.87;;;0.60;97.20;;;;;;5217203;28;20395;-52
2022/03/06 04:06:30;;;;;;;7.43;4.90;;;0.60;93.10;;;;;;5210550;28;20206;-50
2022/03/06 04:09:00;;;;;;;6.00;4.63;;;0.60;92.60;;;;;;5230336;28;20731;-50
2022/03/06 04:11:31;;;;;;;9.30;4.50;;;0.60;92.50;;;;;;5230332;28;20651;-51
2022/03/06 04:14:02;;;;;;;6.50;4.80;;;0.60;90.10;;;;;;5235365;28;20231;-49
2022/03/06 04:16:32;;;;;;;7.90;4.77;;;0.60;90.80;;;;;;5232456;28;20197;-50
2022/03/06 04:19:04;;;;;;;4.50;4.10;;;0.60;90.10;;;;;;5216262;28;20218;-51
2022/03/06 04:21:34;;;;;;;5.53;4.60;;;0.60;90.60;;;;;;5234657;28;20210;-49
2022/03/06 04:24:05;;;;;;;7.30;5.10;;;0.70;90.70;;;;;;5216576;28;20452;-49
2022/03/06 04:26:36;;;;;;;4.93;4.50;;;0.60;89.60;;;;;;5234320;28;20510;-50
2022/03/06 04:29:06;;;;;;;7.00;5.23;;;0.70;88.90;;;;;;5231386;28;20435;-50
2022/03/06 04:31:37;;;;;;;5.73;4.97;;;0.70;89.50;;;;;;5211452;28;20217;-50
2022/03/06 04:34:07;;;;;;;6.70;5.30;;;0.70;90.10;;;;;;5229236;28;20255;-50
2022/03/06 04:36:38;;;;;;;9.03;5.23;;;0.70;89.30;;;;;;5215513;28;20257;-51
2022/03/06 04:39:08;;;;;;;7.40;5.07;;;0.70;90.00;;;;;;5227852;28;20178;-50
2022/03/06 04:41:39;;;;;;;3.83;3.53;;;0.70;85.30;;;;;;5239735;28;20205;-51
2022/03/06 04:44:09;;;;;;;12.17;5.50;;;0.70;83.10;;;;;;5235965;28;20210;-50
2022/03/06 04:46:40;;;;;;;5.40;4.90;;;0.70;77.10;;;;;;5229441;28;20195;-50
2022/03/06 04:49:10;;;;;;;8.33;5.60;;;0.70;77.00;;;;;;5213391;28;20193;-49
2022/03/06 04:51:41;;;;;;;7.23;4.57;;;0.70;76.70;;;;;;5236552;28;20178;-50
2022/03/06 04:54:12;;;;;;;10.07;6.00;;;0.80;77.60;;;;;;5233765;28;20324;-50
2022/03/06 04:56:42;;;;;;;9.50;5.60;;;0.80;78.00;;;;;;5231908;28;20531;-51
2022/03/06 04:59:13;;;;;;;5.90;4.30;;;0.70;78.00;;;;;;5229324;28;20613;-50
2022/03/06 05:01:43;;;;;;;5.83;4.40;;;0.70;77.00;;;;;;5217132;28;20269;-50
2022/03/06 05:04:14;;;;;;;8.43;4.80;;;0.70;77.40;;;;;;5212606;28;20283;-51
2022/03/06 05:06:45;;;;;;;7.63;4.67;;;0.70;77.70;;;;;;5211402;28;20273;-51
2022/03/06 05:09:15;;;;;;;7.30;5.10;;;0.70;78.30;;;;;;5232394;28;20186;-51
2022/03/06 05:11:46;;;;;;;7.97;5.13;;;0.70;78.30;;;;;;5217288;28;20178;-51
2022/03/06 05:14:16;;;;;;;6.10;5.50;;;0.70;78.80;;;;;;5233543;28;20213;-51
2022/03/06 05:16:47;;;;;;;6.20;4.70;;;0.90;79.50;;;;;;5216942;28;20185;-50
2022/03/06 05:19:17;;;;;;;5.23;4.73;;;0.60;79.60;;;;;;5230375;28;20175;-52
2022/03/06 05:21:48;;;;;;;6.17;4.73;;;0.60;78.60;;;;;;5229692;28;20179;-51
2022/03/06 05:24:18;;;;;;;9.80;4.50;;;0.60;77.70;;;;;;5236912;28;20206;-50
2022/03/06 05:26:49;;;;;;;7.13;6.20;;;0.60;77.90;;;;;;5218602;28;20189;-51
2022/03/06 05:29:19;;;;;;;5.07;4.60;;;0.60;77.40;;;;;;5229489;28;20213;-51
2022/03/06 05:31:50;;;;;;;9.40;5.63;;;0.60;77.40;;;;;;5238359;28;20194;-50
2022/03/06 05:34:20;;;;;;;6.33;4.53;;;0.50;77.70;;;;;;5217458;28;20200;-51
2022/03/06 05:36:51;;;;;;;12.07;6.83;;;0.50;78.40;;;;;;5212045;28;20177;-50
2022/03/06 05:39:22;;;;;;;8.13;5.67;;;0.50;76.10;;;;;;5227038;28;20266;-50
2022/03/06 05:41:52;;;;;;;6.93;5.53;;;0.60;73.80;;;;;;5232130;28;20543;-49
2022/03/06 05:44:24;;;;;;;8.60;5.80;;;0.50;72.00;;;;;;5212011;28;20759;-51
2022/03/06 05:46:55;;;;;;;5.83;5.23;;;0.50;70.90;;;;;;5237091;28;20180;-50
2022/03/06 05:49:25;;;;;;;6.07;5.23;;;0.50;70.10;;;;;;5228921;28;20441;-50
2022/03/06 05:51:56;;;;;;;8.50;5.80;;;0.50;71.60;;;;;;5204019;28;20282;-50
2022/03/06 05:54:26;;;;;;;4.80;4.40;;;0.50;71.90;;;;;;5217799;28;20286;-50
2022/03/06 05:56:57;;;;;;;7.20;5.20;;;0.50;72.40;;;;;;5226879;28;20649;-50
2022/03/06 05:59:28;;;;;;;5.80;5.30;;;0.50;73.50;;;;;;5233893;28;20185;-49
2022/03/06 06:01:59;;;;;;;7.67;5.00;;;0.60;73.30;;;;;;5219399;28;20458;-50
2022/03/06 06:04:29;;;;;;;7.00;5.63;;;0.70;73.60;;;;;;5215322;28;20283;-51
2022/03/06 06:07:00;;;;;;;7.27;6.00;;;0.70;73.60;;;;;;5213556;28;20183;-50
2022/03/06 06:09:30;;;;;;;9.23;6.00;;;0.60;72.90;;;;;;5228377;28;20196;-50
2022/03/06 06:12:01;;;;;;;6.53;5.80;;;0.70;72.40;;;;;;5215961;28;20638;-51
2022/03/06 06:14:32;;;;;;;8.20;5.90;;;0.60;73.00;;;;;;5231004;28;20298;-51
2022/03/06 06:17:02;;;;;;;7.47;5.90;;;0.60;73.50;;;;;;5232716;28;20165;-51
2022/03/06 06:19:33;;;;;;;12.57;7.37;;;0.60;73.70;;;;;;5236074;28;20660;-50
2022/03/06 06:22:04;;;;;;;21.80;5.67;;;0.70;73.90;;;;;;5227679;28;20182;-51
2022/03/06 06:24:34;;;;;;;7.03;5.50;;;0.60;74.50;;;;;;5220750;28;20198;-51
2022/03/06 06:27:05;;;;;;;11.80;5.53;;;0.60;75.00;;;;;;5224620;28;20186;-50
2022/03/06 06:29:35;;;;;;;6.50;4.73;;;0.60;73.50;;;;;;5208710;28;20180;-50
2022/03/06 06:32:06;;;;;;;5.13;4.73;;;0.60;69.70;;;;;;5216654;28;20644;-51
2022/03/06 06:34:37;;;;;;;8.27;6.47;;;0.60;70.30;;;;;;5235158;28;20217;-52
2022/03/06 06:37:08;;;;;;;8.17;5.70;;;0.70;71.40;;;;;;5235203;28;20462;-50
2022/03/06 06:39:38;;;;;;;8.80;6.50;;;0.70;72.40;;;;;;5230928;28;20464;-50
2022/03/06 06:42:09;;;;;;;5.53;4.93;;;0.80;72.80;;;;;;5228429;28;20327;-50
2022/03/06 06:44:40;;;;;;;5.33;4.53;;;0.80;72.70;;;;;;5234284;28;20222;-50
2022/03/06 06:47:10;;;;;;;5.00;4.57;;;0.80;72.70;;;;;;5229083;28;20484;-51
2022/03/06 06:49:41;;;;;;;6.87;6.10;;;0.80;71.80;;;;;;5208532;28;20182;-50
2022/03/06 06:52:12;;;;;;;5.40;4.87;;;0.90;71.40;;;;;;5225444;28;20179;-51
2022/03/06 06:54:42;;;;;;;5.40;4.90;;;1.00;71.60;;;;;;5225655;28;20984;-50
2022/03/06 06:57:13;;;;;;;6.80;6.03;;;1.00;72.40;;;;;;5225279;28;20281;-51
2022/03/06 06:59:44;;;;;;;8.17;5.87;;;1.10;71.00;;;;;;5231260;28;20283;-50
2022/03/06 07:02:14;;;;;;;5.67;5.17;;;1.00;72.00;;;;;;5234093;28;20185;-50
2022/03/06 07:04:45;;;;;;;5.67;5.20;;;1.00;69.00;;;;;;5237531;28;20217;-50
2022/03/06 07:07:15;;;;;;;8.50;6.50;;;1.00;69.80;;;;;;5238875;28;20183;-51
2022/03/06 07:09:46;;;;;;;6.00;5.37;;;1.00;71.00;;;;;;5232954;28;20553;-50
2022/03/06 07:12:16;;;;;;;7.83;6.67;;;1.10;70.30;;;;;;5218524;28;20199;-51
2022/03/06 07:14:47;;;;;;;6.97;6.27;;;1.10;69.90;;;;;;5232077;28;20221;-51
2022/03/06 07:17:17;;;;;;;8.57;7.53;;;1.10;68.80;;;;;;5232314;28;20227;-50
2022/03/06 07:19:47;;;;;;;6.77;6.10;;;1.10;69.70;;;;;;5239625;28;20200;-50
2022/03/06 07:22:18;;;;;;;10.00;7.03;;;1.00;70.50;;;;;;5217564;28;20235;-50
2022/03/06 07:24:49;;;;;;;7.50;6.33;;;1.00;70.60;;;;;;5217862;28;20679;-50
2022/03/06 07:27:19;;;;;;;6.93;6.30;;;0.90;71.30;;;;;;5234158;28;20199;-50
2022/03/06 07:29:50;;;;;;;13.20;6.70;;;0.90;71.80;;;;;;5210433;28;20217;-51
2022/03/06 07:32:20;;;;;;;8.83;6.57;;;0.90;72.70;;;;;;5228563;28;20187;-53
2022/03/06 07:34:51;;;;;;;6.13;5.50;;;1.00;73.90;;;;;;5207727;28;20227;-50
2022/03/06 07:37:22;;;;;;;6.50;5.77;;;1.10;74.30;;;;;;5228283;28;20697;-50
2022/03/06 07:39:52;;;;;;;6.70;6.20;;;1.10;75.00;;;;;;5209838;28;20199;-51
2022/03/06 07:42:23;;;;;;;6.70;6.10;;;1.20;73.80;;;;;;5216060;28;20175;-51
2022/03/06 07:44:53;;;;;;;12.20;6.13;;;1.20;73.50;;;;;;5231214;28;20223;-51
2022/03/06 07:47:24;;;;;;;7.20;6.10;;;1.30;73.40;;;;;;5230070;28;20187;-51
2022/03/06 07:49:54;;;;;;;11.43;6.20;;;1.30;72.50;;;;;;5228786;28;20182;-50
2022/03/06 07:52:25;;;;;;;7.60;6.90;;;1.40;73.30;;;;;;5211672;28;20187;-50
2022/03/06 07:54:55;;;;;;;7.93;6.83;;;1.50;74.40;;;;;;5212697;28;20206;-49
2022/03/06 07:57:26;;;;;;;6.43;5.77;;;1.50;74.80;;;;;;5213385;28;20183;-50
2022/03/06 07:59:56;;;;;;;8.77;7.00;;;1.60;74.60;;;;;;5219902;28;20199;-50
2022/03/06 08:02:27;;;;;;;6.47;6.00;;;1.50;74.00;;;;;;5225601;28;21485;-50
2022/03/06 08:04:57;;;;;;;9.53;7.03;;;1.50;74.60;;;;;;5233803;28;20256;-50
2022/03/06 08:07:28;;;;;;;8.73;6.60;;;1.60;74.80;;;;;;5220029;28;20231;-49
2022/03/06 08:09:59;;;;;;;9.70;6.27;;;1.50;75.20;;;;;;5224452;28;20193;-51
2022/03/06 08:12:29;;;;;;;6.83;6.17;;;1.50;76.10;;;;;;5224654;28;20251;-51
2022/03/06 08:15:00;;;;;;;8.47;6.10;;;1.60;76.70;;;;;;5233556;28;20308;-51
2022/03/06 08:17:30;;;;;;;9.10;6.93;;;1.60;77.00;;;;;;5231810;28;20198;-50
2022/03/06 08:20:02;;;;;;;7.43;5.70;;;1.60;77.50;;;;;;5234253;28;20272;-50
2022/03/06 08:22:33;;;;;;;9.60;6.17;;;1.70;77.20;;;;;;5230179;28;20258;-49
2022/03/06 08:25:05;;;;;;;15.77;6.57;;;1.60;78.20;;;;;;5209075;28;20467;-51
2022/03/06 08:27:36;;;;;;;8.93;5.90;;;1.60;79.50;;;;;;5209606;28;20425;-51
2022/03/06 08:30:07;;;;;;;6.27;5.20;;;1.60;80.80;;;;;;5213025;28;20439;-52
2022/03/06 08:32:39;;;;;;;7.20;6.50;;;1.60;81.40;;;;;;5230635;28;20206;-50
2022/03/06 08:35:10;;;;;;;11.20;6.33;;;1.60;82.70;;;;;;5232050;28;20443;-50
2022/03/06 08:37:41;;;;;;;8.83;6.60;;;1.60;83.20;;;;;;5228511;28;20584;-50
2022/03/06 08:40:11;;;;;;;6.63;6.03;;;1.50;84.10;;;;;;5215633;28;20604;-52
2022/03/06 08:42:42;;;;;;;10.37;6.40;;;1.60;83.20;;;;;;5236874;28;20197;-50
2022/03/06 08:45:12;;;;;;;7.23;6.53;;;1.50;85.20;;;;;;5213792;28;20171;-50
2022/03/06 08:47:43;;;;;;;6.60;5.90;;;1.60;85.90;;;;;;5220138;28;20179;-51
2022/03/06 08:50:13;;;;;;;5.70;5.20;;;1.60;85.70;;;;;;5229082;28;20322;-50
2022/03/06 08:52:44;;;;;;;10.53;5.47;;;1.70;84.40;;;;;;5231869;28;20641;-51
2022/03/06 08:55:15;;;;;;;5.10;4.60;;;1.70;83.90;;;;;;5195916;28;20191;-52
2022/03/06 08:57:45;;;;;;;6.20;4.80;;;1.60;85.00;;;;;;5211027;28;20199;-50
2022/03/06 09:00:16;;;;;;;8.17;5.33;;;1.60;85.90;;;;;;5231110;28;20260;-50
2022/03/06 09:02:46;;;;;;;5.53;4.93;;;1.60;85.70;;;;;;5239631;28;20264;-51
2022/03/06 09:05:20;;;;;;;5.57;4.90;;;1.60;87.20;;;;;;5217764;28;20175;-50
2022/03/06 09:07:51;;;;;;;6.13;4.50;;;1.60;88.80;;;;;;5230094;28;20171;-50
2022/03/06 09:10:22;;;;;;;9.43;4.93;;;1.60;87.90;;;;;;5231038;28;20470;-49
2022/03/06 09:12:52;;;;;;;5.53;5.03;;;1.70;88.20;;;;;;5216276;28;20186;-49
2022/03/06 09:15:23;;;;;;;18.13;11.17;;;1.90;87.00;;;;;;5221996;22;20494;-49
2022/03/06 09:17:54;;;;;;;6.97;6.13;;;1.90;84.10;;;;;;5194924;28;20247;-50
2022/03/06 09:20:25;;;;;;;24.27;11.50;;;1.90;84.50;;;;;;5196834;28;20765;-47
2022/03/06 09:22:56;;;;;;;20.80;10.70;;;1.80;84.80;;;;;;5194302;28;20197;-48
2022/03/06 09:25:32;;;;;;;12.50;7.40;;;1.80;85.30;;;;;;5176117;28;20466;-49
2022/03/06 09:28:03;;;;;;;6.63;5.50;;;1.70;85.30;;;;;;5173066;28;20419;-51
2022/03/06 09:30:34;;;;;;;4.40;4.00;;;1.80;86.00;;;;;;5173822;28;20440;-48
2022/03/06 09:33:05;;;;;;;6.20;4.20;;;1.90;82.20;;;;;;5179092;28;20514;-47
2022/03/06 09:35:36;;;;;;;5.60;4.87;;;2.00;81.80;;;;;;5162509;28;20596;-49
2022/03/06 09:38:06;;;;;;;5.07;3.87;;;2.00;80.40;;;;;;5179529;28;20193;-48
2022/03/06 09:40:41;;;;;;;4.10;3.70;;;2.00;78.80;;;;;;5174503;28;20208;-50
2022/03/06 09:43:17;;;;;;;4.30;3.90;;;2.00;78.80;;;;;;5181860;28;20195;-47
2022/03/06 09:45:48;;;;;;;6.70;4.30;;;2.10;78.80;;;;;;5178143;28;20453;-48
2022/03/06 09:48:19;;;;;;;4.17;3.87;;;2.30;77.30;;;;;;5169633;28;20936;-51
2022/03/06 09:50:49;;;;;;;4.03;3.40;;;2.30;75.90;;;;;;5171110;28;20195;-47
2022/03/06 09:53:20;;;;;;;4.07;3.87;;;2.30;75.80;;;;;;5175419;28;20330;-49
2022/03/06 09:55:50;;;;;;;4.27;3.97;;;2.20;73.10;;;;;;5166977;28;20204;-48
2022/03/06 09:58:21;;;;;;;4.70;3.63;;;2.30;72.60;;;;;;5173317;28;20656;-50
2022/03/06 10:00:51;;;;;;;7.20;4.07;;;2.20;72.80;;;;;;5177697;28;20200;-49
2022/03/06 10:03:22;;;;;;;4.43;4.03;;;2.10;73.20;;;;;;5179467;28;20199;-48
2022/03/06 10:05:53;;;;;;;4.67;4.07;;;2.20;72.60;;;;;;5174799;28;20181;-47
2022/03/06 10:08:25;;;;;;;4.80;4.33;;;2.20;71.60;;;;;;5182473;28;20428;-49
2022/03/06 10:11:04;;;;;;;3.73;3.43;;;2.20;69.90;;;;;;5175706;28;20635;-48
2022/03/06 10:13:40;;;;;;;4.63;4.17;;;2.30;70.10;;;;;;5177781;28;20456;-49
2022/03/06 10:16:20;;;;;;;3.70;3.50;;;2.30;68.00;;;;;;5175991;28;20438;-49
2022/03/06 10:18:53;;;;;;;7.07;3.47;;;2.40;67.10;;;;;;5175623;28;20500;-47
2022/03/06 10:21:26;;;;;;;4.43;4.03;;;2.30;66.70;;;;;;5176219;28;20512;-50
2022/03/06 10:24:00;;;;;;;4.20;3.90;;;2.30;66.20;;;;;;5179436;28;20512;-48
2022/03/06 10:26:34;;;;;;;5.50;4.23;;;2.40;64.80;;;;;;5176503;28;20475;-49
2022/03/06 10:29:11;;;;;;;4.43;4.10;;;2.50;62.40;;;;;;5171017;28;20518;-49
2022/03/06 10:31:56;;;;;;;5.57;3.50;;;2.50;60.80;;;;;;5168375;28;20477;-50
2022/03/06 10:34:40;;;;;;;4.00;3.60;;;2.60;59.70;;;;;;5172383;28;20465;-49
2022/03/06 10:37:14;;;;;;;5.83;4.03;;;2.60;59.90;;;;;;5173988;28;20470;-48
2022/03/06 10:39:46;;;;;;;4.20;3.90;;;2.90;59.30;;;;;;5168206;28;20801;-51
2022/03/06 10:42:23;;;;;;;6.20;4.10;;;3.00;58.80;;;;;;5176915;28;20442;-48
2022/03/06 10:44:53;;;;;;;3.23;3.00;;;3.10;58.30;;;;;;5178517;28;20451;-48
2022/03/06 10:47:24;;;;;;;3.63;3.43;;;3.00;57.00;;;;;;5172822;28;20493;-49
2022/03/06 10:50:03;;;;;;;4.40;4.00;;;2.90;55.80;;;;;;5170484;28;20672;-47
2022/03/06 10:52:41;;;;;;;4.53;3.60;;;3.00;54.80;;;;;;5170841;28;20538;-48
2022/03/06 10:55:12;;;;;;;5.37;4.20;;;2.80;55.00;;;;;;5193716;28;20474;-49
2022/03/06 10:57:55;;;;;;;6.73;4.67;;;2.90;55.40;;;;;;5172381;28;20514;-49
2022/03/06 11:00:27;;;;;;;4.13;3.83;;;2.90;55.30;;;;;;5177572;28;20663;-52
2022/03/06 11:03:03;;;;;;;4.17;3.87;;;3.00;54.80;;;;;;5167966;28;20458;-50
2022/03/06 11:05:34;;;;;;;4.83;4.03;;;3.00;54.40;;;;;;5167284;28;20458;-52
2022/03/06 11:08:05;;;;;;;4.10;3.80;;;3.10;54.10;;;;;;5170441;28;20450;-50
2022/03/06 11:10:38;;;;;;;5.60;4.00;;;3.20;53.10;;;;;;5166780;28;20961;-49
2022/03/06 11:13:12;;;;;;;3.90;3.70;;;3.30;52.70;;;;;;5169927;28;20444;-48
2022/03/06 11:15:43;;;;;;;3.90;2.93;;;3.00;51.30;;;;;;5173224;28;20498;-47
2022/03/06 11:18:13;;;;;;;3.90;3.70;;;2.90;52.10;;;;;;5180303;28;20435;-49
2022/03/06 11:20:45;;;;;;;4.93;3.93;;;2.80;52.50;;;;;;5180764;28;20212;-50
2022/03/06 11:23:43;;;;;;;3.63;3.40;;;2.80;52.70;;;;;;5179649;28;20184;-49
2022/03/06 11:26:13;;;;;;;8.03;4.03;;;3.00;52.30;;;;;;5172876;28;20716;-49
2022/03/06 11:29:26;;;;;;;4.23;3.80;;;3.20;51.50;;;;;;5173892;28;20438;-50
2022/03/06 11:32:05;;;;;;;3.93;3.67;;;3.20;50.80;;;;;;5177446;28;20221;-49
2022/03/06 11:34:38;;;;;;;4.03;3.67;;;3.50;49.80;;;;;;5178678;28;20996;-48
2022/03/06 11:37:15;;;;;;;3.43;3.30;;;3.60;49.70;;;;;;5169710;28;20493;-49
2022/03/06 11:39:47;;;;;;;4.30;4.00;;;3.90;49.20;;;;;;5175273;28;21050;-49
2022/03/06 11:42:53;;;;;;;4.13;3.73;;;4.20;49.00;;;;;;5175478;28;20444;-48
2022/03/06 11:45:42;;;;;;;3.77;3.57;;;4.30;46.80;;;;;;5175514;28;21004;-47
2022/03/06 11:48:24;;;;;;;6.30;5.30;;;4.40;46.20;;;;;;5174412;28;20477;-47
2022/03/06 11:51:14;;;;;;;3.87;3.57;;;4.50;46.30;;;;;;5175340;28;20967;-48
2022/03/06 11:54:19;;;;;;;3.90;3.57;;;4.50;45.90;;;;;;5184557;28;21013;-48
2022/03/06 11:56:53;;;;;;;3.17;2.97;;;4.50;46.00;;;;;;5202491;28;20463;-50
2022/03/06 11:59:32;;;;;;;3.90;2.30;;;4.60;45.60;;;;;;5181272;28;20433;-50
2022/03/06 12:02:10;;;;;;;3.37;3.20;;;4.80;45.50;;;;;;5183053;28;20493;-50
2022/03/06 12:04:45;;;;;;;4.73;2.50;;;4.60;44.80;;;;;;5181073;28;20492;-49
2022/03/06 12:07:17;;;;;;;4.73;2.60;;;4.10;44.10;;;;;;5177757;28;20892;-48
2022/03/06 12:09:48;;;;;;;2.80;2.57;;;3.70;45.30;;;;;;5179387;28;20423;-48
2022/03/06 12:12:21;;;;;;;2.83;2.63;;;3.40;46.40;;;;;;5176560;28;20435;-49
2022/03/06 12:14:54;;;;;;;2.37;2.27;;;3.30;47.30;;;;;;5173653;28;20816;-49
2022/03/06 12:17:33;;;;;;;5.67;2.23;;;2.90;48.10;;;;;;5178487;28;20459;-49
2022/03/06 12:20:12;;;;;;;1.63;1.63;;;2.80;49.40;;;;;;5176256;28;20462;-47
2022/03/06 12:22:48;;;;;;;2.00;1.90;;;2.70;50.30;;;;;;5176063;28;20911;-50
2022/03/06 12:25:29;;;;;;;2.40;2.20;;;2.70;50.70;;;;;;5178947;28;20434;-49
2022/03/06 12:28:03;;;;;;;2.07;1.83;;;2.80;50.70;;;;;;5176178;28;20473;-48
2022/03/06 12:30:35;;;;;;;2.10;1.70;;;3.10;50.50;;;;;;5182085;28;20467;-48
2022/03/06 12:33:35;;;;;;;4.60;2.60;;;3.30;49.70;;;;;;5173789;28;20435;-48
2022/03/06 12:36:20;;;;;;;1.63;1.60;;;3.40;49.50;;;;;;5162506;28;20436;-49
2022/03/06 12:39:00;;;;;;;1.60;1.50;;;3.50;49.60;;;;;;5178089;28;20471;-51
2022/03/06 12:41:32;;;;;;;2.90;2.17;;;3.60;49.30;;;;;;5177902;28;20467;-51
2022/03/06 12:44:06;;;;;;;1.57;1.50;;;3.50;49.40;;;;;;5180222;28;20569;-47
2022/03/06 12:46:36;;;;;;;2.00;1.90;;;3.30;49.80;;;;;;5173841;28;20408;-50
2022/03/06 12:49:07;;;;;;;1.47;1.47;;;3.20;50.70;;;;;;5180478;28;20408;-49
2022/03/06 12:51:39;;;;;;;1.67;1.50;;;3.10;51.00;;;;;;5182458;28;20267;-49
2022/03/06 12:54:22;;;;;;;2.30;1.77;;;3.10;51.40;;;;;;5179672;28;20246;-49
2022/03/06 12:56:57;;;;;;;3.73;1.83;;;3.10;51.40;;;;;;5177310;28;20519;-49
2022/03/06 12:59:28;;;;;;;5.93;1.87;;;3.10;51.40;;;;;;5179765;28;21012;-48
2022/03/06 13:01:58;;;;;;;3.23;1.73;;;3.30;51.40;;;;;;5183648;28;20566;-48
2022/03/06 13:04:30;;;;;;;1.10;1.10;;;3.40;51.60;;;;;;5184170;28;20192;-48
2022/03/06 13:07:01;;;;;;;1.67;1.20;;;3.30;50.90;;;;;;5174678;28;20572;-50
2022/03/06 13:09:36;;;;;;;1.53;1.50;;;3.20;51.70;;;;;;5176784;28;20785;-49
2022/03/06 13:12:07;;;;;;;1.60;1.50;;;3.30;52.10;;;;;;5177864;28;20446;-48
2022/03/06 13:14:39;;;;;;;2.00;1.90;;;3.30;52.00;;;;;;5175642;28;20482;-47
2022/03/06 13:17:11;;;;;;;4.00;1.90;;;3.30;52.10;;;;;;5185623;28;20542;-49
2022/03/06 13:19:47;;;;;;;1.57;1.57;;;3.20;52.20;;;;;;5175297;28;20447;-49
2022/03/06 13:22:20;;;;;;;2.00;1.37;;;3.10;52.40;;;;;;5178776;28;20501;-49